createdAt,value
2018-02-06T00:00:08.402Z,1020.13
2018-02-06T00:01:08.348Z,1020.13
2018-02-06T00:02:08.294Z,1020.13
2018-02-06T00:03:08.241Z,1020.13
2018-02-06T00:04:08.435Z,1020.09
2018-02-06T00:05:08.334Z,1020.12
2018-02-06T00:06:08.077Z,1020.10
2018-02-06T00:07:08.176Z,1020.13
2018-02-06T00:08:07.970Z,1020.12
2018-02-06T00:09:07.918Z,1020.08
2018-02-06T00:10:07.860Z,1020.08
2018-02-06T00:11:07.807Z,1020.08
2018-02-06T00:12:07.752Z,1020.05
2018-02-06T00:13:07.698Z,1020.06
2018-02-06T00:14:07.651Z,1020.05
2018-02-06T00:15:07.590Z,1020.09
2018-02-06T00:16:07.535Z,1020.05
2018-02-06T00:17:07.481Z,1020.03
2018-02-06T00:18:07.427Z,1020.01
2018-02-06T00:19:07.523Z,1019.96
2018-02-06T00:20:07.318Z,1019.97
2018-02-06T00:21:07.267Z,1019.97
2018-02-06T00:22:07.209Z,1019.99
2018-02-06T00:23:07.156Z,1020.00
2018-02-06T00:24:07.102Z,1019.96
2018-02-06T00:25:07.048Z,1019.96
2018-02-06T00:26:06.994Z,1020.00
2018-02-06T00:27:06.939Z,1020.00
2018-02-06T00:28:06.887Z,1019.98
2018-02-06T00:29:06.830Z,1019.95
2018-02-06T00:30:06.777Z,1019.96
2018-02-06T00:31:06.722Z,1019.96
2018-02-06T00:32:06.668Z,1019.97
2018-02-06T00:33:06.617Z,1019.91
2018-02-06T00:34:06.581Z,1019.95
2018-02-06T00:35:06.506Z,1019.91
2018-02-06T00:36:06.450Z,1019.86
2018-02-06T00:37:06.396Z,1019.86
2018-02-06T00:38:06.343Z,1019.81
2018-02-06T00:39:06.288Z,1019.84
2018-02-06T00:40:06.233Z,1019.82
2018-02-06T00:41:06.181Z,1019.82
2018-02-06T00:42:06.126Z,1019.79
2018-02-06T00:43:06.072Z,1019.80
2018-02-06T00:44:06.018Z,1019.79
2018-02-06T00:45:05.962Z,1019.76
2018-02-06T00:46:05.929Z,1019.74
2018-02-06T00:47:05.854Z,1019.77
2018-02-06T00:48:05.799Z,1019.77
2018-02-06T00:49:05.746Z,1019.74
2018-02-06T00:50:05.692Z,1019.71
2018-02-06T00:51:05.637Z,1019.71
2018-02-06T00:52:05.583Z,1019.75
2018-02-06T00:53:05.529Z,1019.71
2018-02-06T00:54:05.475Z,1019.72
2018-02-06T00:55:05.421Z,1019.72
2018-02-06T00:56:05.366Z,1019.71
2018-02-06T00:57:05.312Z,1019.70
2018-02-06T00:58:05.258Z,1019.71
2018-02-06T00:59:05.204Z,1019.66
2018-02-06T01:00:05.149Z,1019.65
2018-02-06T01:01:05.096Z,1019.66
2018-02-06T01:02:05.141Z,1019.60
2018-02-06T01:03:04.987Z,1019.58
2018-02-06T01:04:04.932Z,1019.59
2018-02-06T01:05:04.878Z,1019.60
2018-02-06T01:06:04.824Z,1019.57
2018-02-06T01:07:04.770Z,1019.59
2018-02-06T01:08:04.715Z,1019.56
2018-02-06T01:09:04.662Z,1019.59
2018-02-06T01:10:04.607Z,1019.56
2018-02-06T01:11:04.553Z,1019.52
2018-02-06T01:12:04.499Z,1019.51
2018-02-06T01:13:04.445Z,1019.52
2018-02-06T01:14:04.391Z,1019.52
2018-02-06T01:15:04.336Z,1019.51
2018-02-06T01:16:04.289Z,1019.48
2018-02-06T01:17:04.328Z,1019.44
2018-02-06T01:18:04.172Z,1019.44
2018-02-06T01:19:04.120Z,1019.44
2018-02-06T01:20:04.369Z,1019.41
2018-02-06T01:21:04.011Z,1019.39
2018-02-06T01:23:03.903Z,1019.36
2018-02-06T01:24:03.848Z,1019.35
2018-02-06T01:25:03.844Z,1019.31
2018-02-06T01:26:03.740Z,1019.30
2018-02-06T01:27:03.686Z,1019.26
2018-02-06T01:28:03.639Z,1019.22
2018-02-06T01:29:03.577Z,1019.21
2018-02-06T01:30:03.523Z,1019.23
2018-02-06T01:31:03.469Z,1019.17
2018-02-06T01:32:03.416Z,1019.17
2018-02-06T01:33:03.360Z,1019.18
2018-02-06T01:34:03.306Z,1019.16
2018-02-06T01:35:03.257Z,1019.13
2018-02-06T01:36:03.198Z,1019.10
2018-02-06T01:37:03.143Z,1019.09
2018-02-06T01:38:03.089Z,1019.05
2018-02-06T01:39:03.036Z,1019.06
2018-02-06T01:40:02.980Z,1019.06
2018-02-06T01:41:02.926Z,1019.01
2018-02-06T01:42:02.873Z,1019.01
2018-02-06T01:43:02.818Z,1019.01
2018-02-06T01:44:02.763Z,1018.99
2018-02-06T01:45:02.709Z,1018.99
2018-02-06T01:46:02.655Z,1018.96
2018-02-06T01:47:02.601Z,1018.91
2018-02-06T01:48:02.545Z,1018.94
2018-02-06T01:49:02.492Z,1018.90
2018-02-06T01:50:02.439Z,1018.92
2018-02-06T01:51:02.384Z,1018.90
2018-02-06T01:52:02.329Z,1018.89
2018-02-06T01:53:02.274Z,1018.85
2018-02-06T01:55:02.167Z,1018.83
2018-02-06T01:56:02.112Z,1018.84
2018-02-06T01:57:02.058Z,1018.80
2018-02-06T01:58:02.004Z,1018.81
2018-02-06T01:59:01.949Z,1018.77
2018-02-06T02:00:01.895Z,1018.79
2018-02-06T02:01:01.841Z,1018.81
2018-02-06T02:02:01.786Z,1018.80
2018-02-06T02:03:01.734Z,1018.81
2018-02-06T02:04:01.677Z,1018.82
2018-02-06T02:05:01.623Z,1018.79
2018-02-06T02:06:01.569Z,1018.78
2018-02-06T02:07:01.515Z,1018.80
2018-02-06T02:08:01.460Z,1018.76
2018-02-06T02:09:01.407Z,1018.74
2018-02-06T02:10:01.351Z,1018.79
2018-02-06T02:11:01.298Z,1018.74
2018-02-06T02:12:01.243Z,1018.74
2018-02-06T02:13:01.189Z,1018.72
2018-02-06T02:14:01.135Z,1018.68
2018-02-06T02:15:01.081Z,1018.65
2018-02-06T02:16:01.025Z,1018.63
2018-02-06T02:17:00.971Z,1018.65
2018-02-06T02:19:00.864Z,1018.60
2018-02-06T02:20:00.808Z,1018.61
2018-02-06T02:21:00.754Z,1018.65
2018-02-06T02:22:00.700Z,1018.62
2018-02-06T02:23:00.644Z,1018.62
2018-02-06T02:24:00.590Z,1018.63
2018-02-06T02:25:00.536Z,1018.61
2018-02-06T02:26:00.481Z,1018.60
2018-02-06T02:27:00.427Z,1018.62
2018-02-06T02:28:00.378Z,1018.62
2018-02-06T02:29:00.317Z,1018.62
2018-02-06T02:30:00.265Z,1018.61
2018-02-06T02:31:00.208Z,1018.58
2018-02-06T02:32:00.153Z,1018.59
2018-02-06T02:33:00.098Z,1018.58
2018-02-06T02:34:00.044Z,1018.55
2018-02-06T02:34:59.990Z,1018.54
2018-02-06T02:35:59.934Z,1018.51
2018-02-06T02:36:59.879Z,1018.55
2018-02-06T02:37:59.825Z,1018.56
2018-02-06T02:38:59.770Z,1018.54
2018-02-06T02:39:59.714Z,1018.54
2018-02-06T02:40:59.660Z,1018.56
2018-02-06T04:38:53.207Z,1017.50
2018-02-06T04:39:53.110Z,1017.46
2018-02-06T04:40:53.056Z,1017.47
2018-02-06T04:41:53.002Z,1017.43
2018-02-06T04:42:52.946Z,1017.42
2018-02-06T04:43:52.890Z,1017.42
2018-02-06T04:44:52.835Z,1017.39
2018-02-06T04:45:52.780Z,1017.38
2018-02-06T04:46:52.725Z,1017.37
2018-02-06T04:47:52.669Z,1017.36
2018-02-06T04:48:52.614Z,1017.32
2018-02-06T04:49:52.559Z,1017.28
2018-02-06T04:50:52.506Z,1017.30
2018-02-06T04:51:52.448Z,1017.30
2018-02-06T04:52:52.394Z,1017.29
2018-02-06T04:53:52.339Z,1017.27
2018-02-06T04:54:52.284Z,1017.29
2018-02-06T04:55:52.227Z,1017.25
2018-02-06T04:56:52.173Z,1017.33
2018-02-06T04:57:52.118Z,1017.32
2018-02-06T04:58:52.063Z,1017.29
2018-02-06T04:59:52.007Z,1017.26
2018-02-06T05:00:51.952Z,1017.30
2018-02-06T05:01:51.897Z,1017.25
2018-02-06T05:02:51.844Z,1017.26
2018-02-06T05:03:51.786Z,1017.23
2018-02-06T05:04:51.731Z,1017.20
2018-02-06T05:05:51.677Z,1017.22
2018-02-06T05:06:51.626Z,1017.19
2018-02-06T05:07:51.565Z,1017.13
2018-02-06T05:08:51.510Z,1017.12
2018-02-06T05:09:51.456Z,1017.13
2018-02-06T05:10:51.401Z,1017.10
2018-02-06T05:11:51.345Z,1017.05
2018-02-06T05:12:51.296Z,1017.07
2018-02-06T05:13:51.235Z,1017.01
2018-02-06T05:14:51.180Z,1017.01
2018-02-06T05:15:51.124Z,1017.06
2018-02-06T05:16:51.070Z,1017.02
2018-02-06T05:17:51.214Z,1017.01
2018-02-06T05:18:50.960Z,1017.00
2018-02-06T05:19:50.904Z,1017.00
2018-02-06T05:20:50.849Z,1016.99
2018-02-06T05:21:50.794Z,1017.02
2018-02-06T05:22:50.739Z,1016.97
2018-02-06T05:23:50.682Z,1016.99
2018-02-06T05:24:50.628Z,1016.96
2018-02-06T05:25:50.574Z,1016.93
2018-02-06T05:26:50.518Z,1016.92
2018-02-06T05:27:50.462Z,1016.89
2018-02-06T05:28:50.406Z,1016.90
2018-02-06T05:29:50.352Z,1016.87
2018-02-06T05:30:50.297Z,1016.91
2018-02-06T05:31:50.241Z,1016.87
2018-02-06T05:32:50.187Z,1016.88
2018-02-06T05:33:50.131Z,1016.86
2018-02-06T05:34:50.076Z,1016.87
2018-02-06T05:35:50.027Z,1016.81
2018-02-06T05:36:49.966Z,1016.84
2018-02-06T05:37:49.910Z,1016.80
2018-02-06T05:38:49.855Z,1016.80
2018-02-06T05:39:49.799Z,1016.80
2018-02-06T05:40:49.747Z,1016.73
2018-02-06T05:41:49.689Z,1016.79
2018-02-06T05:42:49.633Z,1016.78
2018-02-06T05:43:49.580Z,1016.78
2018-02-06T05:44:49.530Z,1016.76
2018-02-06T05:45:49.469Z,1016.79
2018-02-06T05:46:49.414Z,1016.79
2018-02-06T05:47:49.357Z,1016.80
2018-02-06T05:48:49.303Z,1016.78
2018-02-06T05:49:49.249Z,1016.83
2018-02-06T05:50:49.193Z,1016.79
2018-02-06T05:51:49.137Z,1016.78
2018-02-06T05:52:49.082Z,1016.84
2018-02-06T05:53:49.028Z,1016.84
2018-02-06T05:54:48.972Z,1016.83
2018-02-06T05:55:48.916Z,1016.81
2018-02-06T05:56:48.861Z,1016.86
2018-02-06T05:57:48.806Z,1016.87
2018-02-06T05:58:48.751Z,1016.83
2018-02-06T05:59:48.745Z,1016.85
2018-02-06T06:00:48.640Z,1016.81
2018-02-06T06:01:48.585Z,1016.86
2018-02-06T06:02:48.530Z,1016.83
2018-02-06T06:03:48.474Z,1016.84
2018-02-06T06:04:48.418Z,1016.80
2018-02-06T06:05:48.363Z,1016.85
2018-02-06T06:06:48.308Z,1016.81
2018-02-06T06:07:48.255Z,1016.80
2018-02-06T06:08:48.197Z,1016.77
2018-02-06T06:09:48.142Z,1016.77
2018-02-06T06:10:48.086Z,1016.77
2018-02-06T06:11:48.030Z,1016.77
2018-02-06T06:12:47.975Z,1016.80
2018-02-06T06:13:47.920Z,1016.77
2018-02-06T06:14:47.865Z,1016.80
2018-02-06T06:15:47.810Z,1016.78
2018-02-06T06:16:47.754Z,1016.78
2018-02-06T06:17:47.699Z,1016.79
2018-02-06T06:18:47.644Z,1016.78
2018-02-06T06:19:47.588Z,1016.75
2018-02-06T06:20:47.533Z,1016.71
2018-02-06T06:21:47.480Z,1016.72
2018-02-06T06:22:47.423Z,1016.76
2018-02-06T06:23:47.367Z,1016.77
2018-02-06T06:24:47.311Z,1016.75
2018-02-06T06:25:47.257Z,1016.73
2018-02-06T06:26:47.202Z,1016.73
2018-02-06T06:27:47.152Z,1016.72
2018-02-06T06:28:47.091Z,1016.71
2018-02-06T06:29:47.036Z,1016.75
2018-02-06T06:30:46.981Z,1016.72
2018-02-06T06:31:46.925Z,1016.73
2018-02-06T06:32:46.871Z,1016.72
2018-02-06T06:33:46.815Z,1016.68
2018-02-06T06:34:46.760Z,1016.68
2018-02-06T06:35:46.705Z,1016.71
2018-02-06T06:36:46.649Z,1016.71
2018-02-06T06:37:46.598Z,1016.70
2018-02-06T06:38:46.540Z,1016.69
2018-02-06T06:39:46.483Z,1016.68
2018-02-06T06:40:46.429Z,1016.71
2018-02-06T06:41:46.377Z,1016.70
2018-02-06T06:42:46.319Z,1016.71
2018-02-06T06:43:46.263Z,1016.68
2018-02-06T06:44:46.208Z,1016.70
2018-02-06T06:45:46.153Z,1016.67
2018-02-06T06:46:46.098Z,1016.71
2018-02-06T06:47:46.042Z,1016.67
2018-02-06T06:48:45.987Z,1016.70
2018-02-06T06:49:45.941Z,1016.69
2018-02-06T06:50:46.027Z,1016.69
2018-02-06T06:51:45.821Z,1016.64
2018-02-06T06:52:45.766Z,1016.68
2018-02-06T06:53:45.711Z,1016.68
2018-02-06T06:54:45.655Z,1016.68
2018-02-06T06:55:45.599Z,1016.65
2018-02-06T06:56:45.545Z,1016.68
2018-02-06T06:57:45.489Z,1016.73
2018-02-06T06:58:45.435Z,1016.72
2018-02-06T06:59:45.383Z,1016.66
2018-02-06T07:00:45.323Z,1016.69
2018-02-06T07:01:45.367Z,1016.70
2018-02-06T07:02:45.212Z,1016.65
2018-02-06T07:03:45.156Z,1016.68
2018-02-06T07:04:45.101Z,1016.68
2018-02-06T07:05:45.046Z,1016.65
2018-02-06T07:06:44.991Z,1016.67
2018-02-06T07:07:44.934Z,1016.64
2018-02-06T07:08:44.879Z,1016.61
2018-02-06T07:09:44.874Z,1016.64
2018-02-06T07:10:44.803Z,1016.66
2018-02-06T07:11:44.713Z,1016.63
2018-02-06T07:12:44.659Z,1016.61
2018-02-06T07:13:44.603Z,1016.60
2018-02-06T07:14:44.999Z,1016.59
2018-02-06T07:15:44.943Z,1016.58
2018-02-06T07:16:44.838Z,1016.57
2018-02-06T07:17:44.841Z,1016.55
2018-02-06T07:18:44.729Z,1016.54
2018-02-06T07:19:44.571Z,1016.52
2018-02-06T07:20:44.467Z,1016.50
2018-02-06T07:21:44.413Z,1016.52
2018-02-06T07:22:44.408Z,1016.50
2018-02-06T07:23:44.252Z,1016.49
2018-02-06T07:24:44.148Z,1016.48
2018-02-06T07:25:44.043Z,1016.52
2018-02-06T07:26:43.937Z,1016.54
2018-02-06T07:27:43.933Z,1016.53
2018-02-06T07:28:43.827Z,1016.55
2018-02-06T07:29:43.724Z,1016.58
2018-02-06T07:30:43.669Z,1016.62
2018-02-06T07:31:43.614Z,1016.57
2018-02-06T07:32:43.559Z,1016.61
2018-02-06T07:33:43.506Z,1016.63
2018-02-06T07:34:43.454Z,1016.67
2018-02-06T07:35:43.398Z,1016.67
2018-02-06T07:36:43.345Z,1016.63
2018-02-06T07:37:43.291Z,1016.60
2018-02-06T07:38:43.239Z,1016.56
2018-02-06T07:39:43.186Z,1016.59
2018-02-06T07:40:43.141Z,1016.62
2018-02-06T07:41:43.083Z,1016.60
2018-02-06T07:42:43.031Z,1016.56
2018-02-06T07:43:42.978Z,1016.58
2018-02-06T07:44:42.927Z,1016.53
2018-02-06T07:45:42.912Z,1016.55
2018-02-06T07:46:42.825Z,1016.57
2018-02-06T07:47:42.773Z,1016.59
2018-02-06T07:48:42.722Z,1016.56
2018-02-06T07:49:42.671Z,1016.53
2018-02-06T07:50:42.624Z,1016.51
2018-02-06T07:51:42.568Z,1016.52
2018-02-06T07:52:42.623Z,1016.50
2018-02-06T07:53:42.465Z,1016.49
2018-02-06T07:54:42.415Z,1016.49
2018-02-06T07:55:42.363Z,1016.48
2018-02-06T07:56:42.312Z,1016.51
2018-02-06T07:57:42.259Z,1016.48
2018-02-06T07:58:42.209Z,1016.49
2018-02-06T07:59:42.157Z,1016.50
2018-02-06T08:00:42.106Z,1016.55
2018-02-06T08:01:42.053Z,1016.53
2018-02-06T08:02:42.003Z,1016.63
2018-02-06T08:03:41.951Z,1016.68
2018-02-06T08:04:41.899Z,1016.76
2018-02-06T08:05:41.848Z,1016.80
2018-02-06T08:06:41.797Z,1016.81
2018-02-06T08:07:41.744Z,1016.85
2018-02-06T08:08:41.693Z,1016.86
2018-02-06T08:09:41.643Z,1016.91
2018-02-06T08:10:41.592Z,1017.01
2018-02-06T08:11:41.541Z,1016.94
2018-02-06T08:12:41.490Z,1016.73
2018-02-06T08:13:41.442Z,1016.70
2018-02-06T08:14:41.393Z,1016.71
2018-02-06T08:15:41.348Z,1016.66
2018-02-06T08:16:41.300Z,1016.70
2018-02-06T08:17:41.253Z,1016.69
2018-02-06T08:18:41.199Z,1016.73
2018-02-06T08:19:41.150Z,1016.76
2018-02-06T08:20:41.103Z,1016.74
2018-02-06T08:21:41.056Z,1016.73
2018-02-06T08:22:41.009Z,1016.71
2018-02-06T08:23:40.961Z,1016.76
2018-02-06T08:24:40.923Z,1016.74
2018-02-06T08:25:40.889Z,1016.74
2018-02-06T08:26:40.825Z,1016.79
2018-02-06T08:27:40.778Z,1016.82
2018-02-06T08:28:40.733Z,1016.75
2018-02-06T08:29:40.688Z,1016.71
2018-02-06T08:30:40.644Z,1016.79
2018-02-06T08:31:40.599Z,1016.78
2018-02-06T08:32:40.554Z,1016.72
2018-02-06T08:33:40.510Z,1016.73
2018-02-06T08:34:40.467Z,1016.69
2018-02-06T08:35:40.423Z,1016.73
2018-02-06T08:36:40.400Z,1016.73
2018-02-06T08:37:40.336Z,1016.74
2018-02-06T08:38:40.293Z,1016.77
2018-02-06T08:39:40.250Z,1016.76
2018-02-06T08:40:40.207Z,1016.75
2018-02-06T08:41:40.165Z,1016.73
2018-02-06T08:42:40.123Z,1016.76
2018-02-06T08:43:40.079Z,1016.80
2018-02-06T08:44:40.037Z,1016.84
2018-02-06T08:45:39.994Z,1016.82
2018-02-06T08:46:39.953Z,1016.85
2018-02-06T08:47:39.910Z,1016.84
2018-02-06T08:48:39.869Z,1016.81
2018-02-06T08:49:39.827Z,1016.84
2018-02-06T08:50:39.785Z,1016.84
2018-02-06T08:51:39.743Z,1016.81
2018-02-06T08:52:39.701Z,1016.76
2018-02-06T08:53:39.665Z,1016.77
2018-02-06T08:54:39.618Z,1016.77
2018-02-06T08:55:39.576Z,1016.78
2018-02-06T08:56:39.536Z,1016.83
2018-02-06T08:57:39.495Z,1016.84
2018-02-06T08:58:39.453Z,1016.80
2018-02-06T08:59:39.411Z,1016.69
2018-02-06T09:00:39.370Z,1016.58
2018-02-06T09:01:39.328Z,1016.55
2018-02-06T09:02:39.287Z,1016.49
2018-02-06T09:03:39.245Z,1016.52
2018-02-06T09:04:39.204Z,1016.46
2018-02-06T09:05:39.169Z,1016.40
2018-02-06T09:06:39.121Z,1016.39
2018-02-06T09:07:39.079Z,1016.35
2018-02-06T09:08:39.038Z,1016.39
2018-02-06T09:09:38.997Z,1016.38
2018-02-06T09:10:38.959Z,1016.40
2018-02-06T09:11:38.913Z,1016.36
2018-02-06T09:12:38.872Z,1016.35
2018-02-06T09:13:38.832Z,1016.32
2018-02-06T09:14:38.789Z,1016.33
2018-02-06T09:15:38.746Z,1016.31
2018-02-06T09:16:38.736Z,1016.27
2018-02-06T09:17:38.663Z,1016.30
2018-02-06T09:18:38.623Z,1016.30
2018-02-06T09:20:38.537Z,1016.31
2018-02-06T09:21:38.496Z,1016.32
2018-02-06T09:22:38.454Z,1016.31
2018-02-06T09:23:38.612Z,1016.30
2018-02-06T09:24:38.370Z,1016.33
2018-02-06T09:25:38.329Z,1016.29
2018-02-06T09:26:38.489Z,1016.29
2018-02-06T09:27:38.244Z,1016.30
2018-02-06T09:28:38.225Z,1016.32
2018-02-06T09:29:38.161Z,1016.32
2018-02-06T09:30:38.119Z,1016.34
2018-02-06T09:31:38.076Z,1016.36
2018-02-06T09:32:38.035Z,1016.34
2018-02-06T09:33:37.994Z,1016.34
2018-02-06T09:34:37.953Z,1016.28
2018-02-06T09:35:37.909Z,1016.26
2018-02-06T09:36:37.869Z,1016.25
2018-02-06T09:37:37.827Z,1016.28
2018-02-06T09:38:37.786Z,1016.30
2018-02-06T09:39:37.749Z,1016.27
2018-02-06T09:40:37.703Z,1016.22
2018-02-06T09:41:37.660Z,1016.24
2018-02-06T09:42:37.619Z,1016.25
2018-02-06T09:43:37.576Z,1016.25
2018-02-06T09:44:37.533Z,1016.23
2018-02-06T09:45:37.489Z,1016.21
2018-02-06T09:46:37.448Z,1016.15
2018-02-06T09:47:37.404Z,1016.15
2018-02-06T09:48:37.361Z,1016.16
2018-02-06T09:49:37.321Z,1016.15
2018-02-06T09:50:37.273Z,1016.22
2018-02-06T09:51:37.228Z,1016.18
2018-02-06T09:52:37.183Z,1016.17
2018-02-06T09:53:37.138Z,1016.16
2018-02-06T09:54:37.093Z,1016.16
2018-02-06T09:55:37.046Z,1016.10
2018-02-06T09:56:37.000Z,1016.13
2018-02-06T09:57:36.953Z,1016.07
2018-02-06T09:58:36.907Z,1016.14
2018-02-06T09:59:36.860Z,1016.10
2018-02-06T10:00:36.812Z,1016.10
2018-02-06T10:01:36.765Z,1016.13
2018-02-06T10:02:36.718Z,1016.06
2018-02-06T10:03:36.671Z,1016.05
2018-02-06T10:04:36.621Z,1016.09
2018-02-06T10:05:36.574Z,1016.01
2018-02-06T10:06:36.525Z,1016.01
2018-02-06T10:07:36.476Z,1016.07
2018-02-06T10:08:36.427Z,1016.01
2018-02-06T10:09:36.378Z,1015.96
2018-02-06T10:10:36.330Z,1015.96
2018-02-06T10:11:36.279Z,1015.91
2018-02-06T10:12:36.229Z,1015.93
2018-02-06T10:13:36.180Z,1015.96
2018-02-06T10:14:36.131Z,1015.88
2018-02-06T10:15:36.080Z,1015.89
2018-02-06T10:16:36.030Z,1015.93
2018-02-06T10:17:35.980Z,1015.93
2018-02-06T10:18:35.929Z,1015.88
2018-02-06T10:19:35.880Z,1015.93
2018-02-06T10:20:35.827Z,1015.84
2018-02-06T10:21:35.777Z,1015.81
2018-02-06T10:22:35.727Z,1015.76
2018-02-06T10:23:36.125Z,1015.74
2018-02-06T10:24:35.975Z,1015.71
2018-02-06T10:25:36.024Z,1015.70
2018-02-06T10:26:35.874Z,1015.66
2018-02-06T10:27:35.772Z,1015.66
2018-02-06T10:28:35.671Z,1015.68
2018-02-06T10:29:35.570Z,1015.65
2018-02-06T10:30:35.569Z,1015.67
2018-02-06T10:31:35.466Z,1015.62
2018-02-06T10:32:35.365Z,1015.56
2018-02-06T10:33:35.214Z,1015.56
2018-02-06T10:34:35.113Z,1015.55
2018-02-06T10:36:35.009Z,1015.48
2018-02-06T10:37:34.957Z,1015.52
2018-02-06T10:38:34.909Z,1015.45
2018-02-06T10:39:34.854Z,1015.42
2018-02-06T10:40:34.802Z,1015.43
2018-02-06T10:41:34.751Z,1015.43
2018-02-06T10:42:34.699Z,1015.39
2018-02-06T10:43:34.646Z,1015.44
2018-02-06T10:44:34.594Z,1015.38
2018-02-06T10:45:34.543Z,1015.39
2018-02-06T10:46:34.491Z,1015.32
2018-02-06T10:47:34.438Z,1015.32
2018-02-06T10:48:34.386Z,1015.34
2018-02-06T10:49:34.335Z,1015.34
2018-02-06T10:50:34.384Z,1015.35
2018-02-06T10:51:34.231Z,1015.30
2018-02-06T10:52:34.181Z,1015.29
2018-02-06T10:53:34.128Z,1015.31
2018-02-06T10:54:34.078Z,1015.30
2018-02-06T10:55:34.024Z,1015.31
2018-02-06T10:56:33.971Z,1015.31
2018-02-06T10:57:33.923Z,1015.29
2018-02-06T10:58:33.871Z,1015.27
2018-02-06T10:59:33.817Z,1015.27
2018-02-06T11:00:33.766Z,1015.28
2018-02-06T11:01:33.918Z,1015.22
2018-02-06T11:02:33.662Z,1015.22
2018-02-06T11:03:33.610Z,1015.28
2018-02-06T11:04:33.559Z,1015.27
2018-02-06T11:05:33.507Z,1015.18
2018-02-06T11:06:33.457Z,1015.19
2018-02-06T11:07:33.403Z,1015.16
2018-02-06T11:08:33.352Z,1015.17
2018-02-06T11:09:33.300Z,1015.18
2018-02-06T11:10:33.249Z,1015.19
2018-02-06T11:11:33.195Z,1015.19
2018-02-06T11:12:33.190Z,1015.18
2018-02-06T11:13:33.096Z,1015.15
2018-02-06T11:14:33.041Z,1015.10
2018-02-06T11:15:32.988Z,1015.18
2018-02-06T11:16:32.936Z,1015.14
2018-02-06T11:17:32.884Z,1015.12
2018-02-06T11:18:33.032Z,1015.14
2018-02-06T11:19:32.779Z,1015.10
2018-02-06T11:20:32.727Z,1015.01
2018-02-06T11:21:32.691Z,1015.05
2018-02-06T11:22:32.622Z,1014.99
2018-02-06T11:23:32.570Z,1014.96
2018-02-06T11:24:32.518Z,1014.96
2018-02-06T11:25:32.466Z,1014.94
2018-02-06T11:26:32.413Z,1014.93
2018-02-06T11:27:32.360Z,1014.93
2018-02-06T11:28:32.314Z,1014.92
2018-02-06T11:29:32.256Z,1014.87
2018-02-06T11:30:32.204Z,1014.87
2018-02-06T11:31:32.151Z,1014.86
2018-02-06T11:32:32.099Z,1014.85
2018-02-06T11:33:32.046Z,1014.82
2018-02-06T11:34:31.994Z,1014.80
2018-02-06T11:35:31.941Z,1014.81
2018-02-06T11:36:31.889Z,1014.86
2018-02-06T11:37:31.865Z,1014.80
2018-02-06T11:38:31.786Z,1014.75
2018-02-06T11:39:31.731Z,1014.75
2018-02-06T11:40:31.881Z,1014.84
2018-02-06T11:41:31.627Z,1014.81
2018-02-06T11:42:31.575Z,1014.73
2018-02-06T11:43:31.522Z,1014.68
2018-02-06T11:44:31.473Z,1014.73
2018-02-06T11:45:31.417Z,1014.71
2018-02-06T11:46:31.366Z,1014.73
2018-02-06T11:47:31.312Z,1014.71
2018-02-06T11:48:31.259Z,1014.66
2018-02-06T11:49:31.312Z,1014.69
2018-02-06T11:50:31.154Z,1014.63
2018-02-06T11:51:31.101Z,1014.60
2018-02-06T11:52:31.060Z,1014.58
2018-02-06T11:53:30.997Z,1014.57
2018-02-06T11:54:30.950Z,1014.52
2018-02-06T11:55:30.890Z,1014.52
2018-02-06T11:56:30.840Z,1014.61
2018-02-06T11:57:30.785Z,1014.60
2018-02-06T11:58:30.732Z,1014.49
2018-02-06T11:59:30.679Z,1014.49
2018-02-06T12:00:30.626Z,1014.46
2018-02-06T12:01:30.576Z,1014.42
2018-02-06T12:02:30.521Z,1014.45
2018-02-06T12:03:30.467Z,1014.45
2018-02-06T12:04:30.416Z,1014.36
2018-02-06T12:05:30.362Z,1014.39
2018-02-06T12:06:30.310Z,1014.35
2018-02-06T12:07:30.256Z,1014.33
2018-02-06T12:08:30.203Z,1014.35
2018-02-06T12:09:30.152Z,1014.32
2018-02-06T12:10:30.100Z,1014.31
2018-02-06T12:11:30.045Z,1014.31
2018-02-06T12:12:29.992Z,1014.32
2018-02-06T12:13:29.939Z,1014.27
2018-02-06T12:14:29.887Z,1014.34
2018-02-06T12:15:29.833Z,1014.31
2018-02-06T12:16:29.781Z,1014.33
2018-02-06T12:17:29.728Z,1014.29
2018-02-06T12:18:29.676Z,1014.25
2018-02-06T12:19:29.623Z,1014.22
2018-02-06T12:20:29.570Z,1014.23
2018-02-06T12:21:29.517Z,1014.25
2018-02-06T12:22:29.464Z,1014.23
2018-02-06T12:23:29.411Z,1014.24
2018-02-06T12:24:29.409Z,1014.36
2018-02-06T12:25:29.307Z,1014.22
2018-02-06T12:26:29.260Z,1014.20
2018-02-06T12:27:29.201Z,1014.22
2018-02-06T12:28:29.148Z,1014.21
2018-02-06T12:29:29.096Z,1014.16
2018-02-06T12:30:29.045Z,1014.10
2018-02-06T12:31:28.990Z,1014.03
2018-02-06T12:32:28.939Z,1014.04
2018-02-06T12:33:28.885Z,1013.99
2018-02-06T12:34:28.832Z,1013.99
2018-02-06T12:35:28.779Z,1013.95
2018-02-06T12:36:28.726Z,1013.94
2018-02-06T12:37:28.674Z,1013.89
2018-02-06T12:38:28.622Z,1013.86
2018-02-06T12:39:28.567Z,1013.87
2018-02-06T12:40:28.515Z,1013.87
2018-02-06T12:41:28.462Z,1013.84
2018-02-06T12:42:28.409Z,1013.86
2018-02-06T12:43:28.356Z,1013.86
2018-02-06T12:44:28.303Z,1013.82
2018-02-06T12:45:28.251Z,1013.82
2018-02-06T12:46:28.199Z,1013.88
2018-02-06T12:47:28.145Z,1013.85
2018-02-06T12:48:28.093Z,1013.83
2018-02-06T12:49:28.040Z,1013.84
2018-02-06T12:50:27.988Z,1013.78
2018-02-06T12:51:27.984Z,1013.76
2018-02-06T12:52:27.884Z,1013.74
2018-02-06T12:53:27.829Z,1013.68
2018-02-06T12:54:27.777Z,1013.71
2018-02-06T12:55:27.723Z,1013.72
2018-02-06T12:56:27.670Z,1013.66
2018-02-06T12:57:27.620Z,1013.64
2018-02-06T12:58:27.565Z,1013.63
2018-02-06T12:59:27.512Z,1013.61
2018-02-06T13:00:27.459Z,1013.54
2018-02-06T13:01:27.406Z,1013.56
2018-02-06T13:02:27.353Z,1013.45
2018-02-06T13:03:27.299Z,1013.50
2018-02-06T13:04:27.247Z,1013.43
2018-02-06T13:05:27.194Z,1013.48
2018-02-06T13:06:27.141Z,1013.46
2018-02-06T13:07:27.088Z,1013.39
2018-02-06T13:08:27.035Z,1013.38
2018-02-06T13:09:26.982Z,1013.38
2018-02-06T13:10:26.929Z,1013.34
2018-02-06T13:11:26.885Z,1013.32
2018-02-06T13:12:26.822Z,1013.31
2018-02-06T13:13:26.770Z,1013.34
2018-02-06T13:14:26.720Z,1013.26
2018-02-06T13:15:26.863Z,1013.35
2018-02-06T13:16:26.613Z,1013.23
2018-02-06T13:17:26.557Z,1013.19
2018-02-06T13:18:26.504Z,1013.23
2018-02-06T13:19:26.451Z,1013.17
2018-02-06T13:20:26.398Z,1013.21
2018-02-06T13:21:26.396Z,1013.14
2018-02-06T13:22:26.292Z,1013.09
2018-02-06T13:23:26.242Z,1013.07
2018-02-06T13:25:26.133Z,1013.09
2018-02-06T13:26:26.080Z,1013.06
2018-02-06T13:27:26.026Z,1013.02
2018-02-06T13:28:25.973Z,1013.09
2018-02-06T13:29:25.922Z,1013.09
2018-02-06T13:30:25.868Z,1013.03
2018-02-06T13:31:25.814Z,1012.99
2018-02-06T13:32:25.762Z,1012.99
2018-02-06T13:33:25.735Z,1013.01
2018-02-06T13:34:25.656Z,1013.01
2018-02-06T13:35:25.602Z,1013.03
2018-02-06T13:36:25.550Z,1013.05
2018-02-06T13:37:25.506Z,1012.99
2018-02-06T13:38:25.444Z,1012.99
2018-02-06T13:39:25.395Z,1013.00
2018-02-06T13:40:25.337Z,1012.95
2018-02-06T13:41:25.289Z,1012.95
2018-02-06T13:42:25.236Z,1012.96
2018-02-06T13:43:25.177Z,1012.95
2018-02-06T13:44:25.125Z,1012.97
2018-02-06T13:45:25.072Z,1012.99
2018-02-06T13:46:25.020Z,1012.96
2018-02-06T13:47:24.965Z,1012.93
2018-02-06T13:48:24.916Z,1012.88
2018-02-06T13:49:24.860Z,1012.86
2018-02-06T13:50:24.808Z,1012.85
2018-02-06T13:51:24.756Z,1012.86
2018-02-06T13:52:24.700Z,1012.82
2018-02-06T13:53:24.649Z,1012.80
2018-02-06T13:54:24.596Z,1012.88
2018-02-06T13:55:24.541Z,1012.90
2018-02-06T13:56:24.690Z,1012.83
2018-02-06T13:57:24.436Z,1012.88
2018-02-06T13:58:24.384Z,1012.85
2018-02-06T13:59:24.329Z,1012.82
2018-02-06T14:00:24.279Z,1012.85
2018-02-06T14:01:24.225Z,1012.89
2018-02-06T14:02:24.176Z,1012.81
2018-02-06T14:03:24.118Z,1012.79
2018-02-06T14:04:24.066Z,1012.87
2018-02-06T14:05:24.013Z,1012.82
2018-02-06T14:06:23.960Z,1012.84
2018-02-06T14:07:23.906Z,1012.79